Time;durP1;ratioP1;P1;durP2;ratioP2;P2;SDS_P1;SDS_P2;PMS_P1;PMS_P2;Temp;Humidity;BMP_temperature;BMP_pressure;BME280_temperature;BME280_humidity;BME280_pressure;Samples;Min_cycle;Max_cycle;Signal;HPM_P1;HPM_P2
2021/09/11 00:02:34;;;;;;;17.23;8.60;;;;;;;15.49;100.00;101413.03;6238601;28;20236;-73
2021/09/11 00:05:38;;;;;;;11.27;8.30;;;;;;;15.35;100.00;101406.06;6236879;28;20185;-73
2021/09/11 00:08:43;;;;;;;16.35;9.27;;;;;;;15.29;100.00;101412.47;6237328;28;20217;-73
2021/09/11 00:11:48;;;;;;;14.93;9.05;;;;;;;15.31;100.00;101415.81;6238077;28;20186;-72
2021/09/11 00:14:52;;;;;;;18.60;9.52;;;;;;;15.36;100.00;101425.06;6236938;28;20527;-73
2021/09/11 00:17:56;;;;;;;15.05;9.65;;;;;;;15.46;100.00;101430.00;6238207;28;20185;-72
2021/09/11 00:21:01;;;;;;;14.88;9.30;;;;;;;15.39;100.00;101423.75;6236770;28;20480;-73
2021/09/11 00:24:07;;;;;;;29.13;10.85;;;;;;;15.62;100.00;101418.34;6238097;28;20203;-73
2021/09/11 00:27:12;;;;;;;18.17;9.57;;;;;;;15.58;100.00;101406.97;6238087;28;20232;-73
2021/09/11 00:30:17;;;;;;;18.02;9.77;;;;;;;15.58;100.00;101406.97;6237607;28;20213;-73
2021/09/11 00:33:21;;;;;;;16.00;9.48;;;;;;;15.57;100.00;101404.44;6237018;28;20367;-73
2021/09/11 00:36:25;;;;;;;15.55;9.18;;;;;;;15.51;100.00;101403.47;6237404;28;20193;-73
2021/09/11 00:39:31;;;;;;;19.65;10.73;;;;;;;15.65;100.00;101406.88;6236602;28;20259;-73
2021/09/11 00:42:37;;;;;;;18.23;10.90;;;;;;;15.52;100.00;101396.06;6237646;28;20233;-73
2021/09/11 00:45:41;;;;;;;10.40;8.18;;;;;;;15.61;100.00;101400.19;6237759;28;20263;-73
2021/09/11 00:48:45;;;;;;;18.27;9.40;;;;;;;15.55;100.00;101396.44;6237255;28;20231;-73
2021/09/11 00:51:51;;;;;;;13.82;8.73;;;;;;;15.52;100.00;101401.56;6236455;28;20281;-73
2021/09/11 00:54:59;;;;;;;14.25;8.85;;;;;;;15.49;100.00;101402.88;6236526;28;20366;-73
2021/09/11 00:58:05;;;;;;;11.68;8.90;;;;;;;15.51;100.00;101399.91;6237805;28;20232;-73
2021/09/11 01:01:09;;;;;;;11.20;8.43;;;;;;;15.52;100.00;101399.66;6236689;28;20196;-73
2021/09/11 01:04:13;;;;;;;12.77;8.35;;;;;;;15.47;100.00;101398.69;6250815;23;20462;-74
2021/09/11 01:07:17;;;;;;;15.55;9.27;;;;;;;15.42;100.00;101398.53;6267186;28;20276;-74
2021/09/11 01:10:25;;;;;;;17.23;9.02;;;;;;;15.42;100.00;101395.78;6266005;28;20239;-73
2021/09/11 01:13:29;;;;;;;16.45;9.50;;;;;;;15.36;100.00;101385.72;6267224;28;20189;-75
2021/09/11 01:16:34;;;;;;;21.25;10.15;;;;;;;15.41;100.00;101388.59;6267367;28;20328;-74
2021/09/11 01:19:39;;;;;;;15.73;10.10;;;;;;;15.56;100.00;101391.78;6266112;28;20227;-73
2021/09/11 01:22:45;;;;;;;17.02;9.90;;;;;;;15.57;100.00;101376.94;6265708;28;20492;-73
2021/09/11 01:25:52;;;;;;;14.73;9.82;;;;;;;15.58;100.00;101378.63;6265697;28;20496;-74
2021/09/11 01:28:57;;;;;;;12.52;8.55;;;;;;;15.55;100.00;101381.84;6266962;28;20189;-74
2021/09/11 01:32:01;;;;;;;23.65;10.70;;;;;;;15.50;100.00;101378.97;6265507;28;20466;-74
2021/09/11 01:35:08;;;;;;;14.27;8.82;;;;;;;15.52;100.00;101365.81;6265361;28;20588;-74
2021/09/11 01:38:12;;;;;;;12.68;8.48;;;;;;;15.48;100.00;101378.38;6265321;28;20375;-74
2021/09/11 01:41:18;;;;;;;8.88;7.53;;;;;;;15.51;100.00;101372.41;6265370;28;20495;-74
2021/09/11 01:44:22;;;;;;;11.95;8.75;;;;;;;15.55;100.00;101376.34;6265166;28;20476;-74
2021/09/11 01:47:27;;;;;;;14.00;9.20;;;;;;;15.50;100.00;101381.72;6265214;28;20384;-74
2021/09/11 01:50:31;;;;;;;14.73;9.23;;;;;;;15.51;100.00;101367.72;6264940;28;20438;-74
2021/09/11 01:53:37;;;;;;;15.88;8.38;;;;;;;15.56;100.00;101358.78;6265021;28;20208;-74
2021/09/11 01:56:42;;;;;;;15.23;8.70;;;;;;;15.53;100.00;101359.25;6265431;28;20189;-74
2021/09/11 01:59:46;;;;;;;11.88;7.93;;;;;;;15.52;100.00;101363.06;6264810;28;20523;-74
2021/09/11 02:02:50;;;;;;;12.35;8.38;;;;;;;15.59;100.00;101364.63;6264996;28;20449;-74
2021/09/11 02:05:56;;;;;;;10.77;7.90;;;;;;;15.70;100.00;101368.47;6265795;28;20264;-74
2021/09/11 02:09:00;;;;;;;19.35;8.63;;;;;;;15.62;100.00;101374.31;6265688;28;20243;-74
2021/09/11 02:12:06;;;;;;;15.07;8.13;;;;;;;15.36;100.00;101374.72;6265325;28;20298;-74
2021/09/11 02:15:12;;;;;;;11.95;8.45;;;;;;;15.32;100.00;101376.28;6265691;28;20186;-75
2021/09/11 02:18:16;;;;;;;13.23;8.40;;;;;;;15.32;100.00;101373.53;6265124;28;20185;-74
2021/09/11 02:21:23;;;;;;;12.25;8.45;;;;;;;15.38;100.00;101378.91;6265864;28;20189;-74
2021/09/11 02:24:29;;;;;;;17.48;8.32;;;;;;;15.39;100.00;101368.75;6265649;28;20184;-74
2021/09/11 02:27:38;;;;;;;12.43;7.80;;;;;;;15.41;100.00;101366.59;6264338;28;20482;-74
2021/09/11 02:30:43;;;;;;;11.38;8.55;;;;;;;15.37;100.00;101370.91;6265304;28;20213;-74
2021/09/11 02:33:48;;;;;;;9.88;8.05;;;;;;;15.37;100.00;101373.66;6264941;28;20189;-74
2021/09/11 02:36:52;;;;;;;9.82;7.93;;;;;;;15.27;100.00;101370.63;6257020;28;20220;-75
2021/09/11 02:39:56;;;;;;;10.65;8.25;;;;;;;15.28;100.00;101384.13;6265032;28;20263;-75
2021/09/11 02:43:02;;;;;;;15.75;8.68;;;;;;;15.34;100.00;101385.97;6263855;28;20217;-74
2021/09/11 02:46:08;;;;;;;13.23;7.90;;;;;;;15.33;100.00;101387.03;6264260;28;20185;-75
2021/09/11 02:49:15;;;;;;;12.73;8.18;;;;;;;15.35;100.00;101373.06;6264767;28;20252;-74
2021/09/11 02:52:19;;;;;;;13.15;7.85;;;;;;;15.39;100.00;101369.59;6264594;28;20271;-74
2021/09/11 02:55:23;;;;;;;9.20;7.30;;;;;;;15.41;100.00;101372.09;6263606;28;20247;-75
2021/09/11 02:58:37;;;;;;;9.38;7.03;;;;;;;15.44;100.00;101372.47;6263704;28;20556;-74
2021/09/11 03:01:41;;;;;;;7.88;6.82;;;;;;;15.45;100.00;101374.19;6263859;28;20227;-74
2021/09/11 03:04:46;;;;;;;8.50;7.03;;;;;;;15.42;100.00;101377.38;6263833;28;20558;-74
2021/09/11 03:07:50;;;;;;;14.25;7.75;;;;;;;15.36;100.00;101371.97;6263963;28;20185;-75
2021/09/11 03:10:54;;;;;;;6.90;6.30;;;;;;;15.53;100.00;101364.75;6263137;28;20434;-75
2021/09/11 03:13:59;;;;;;;7.03;6.32;;;;;;;15.62;100.00;101368.81;6264249;28;20258;-74
2021/09/11 03:17:04;;;;;;;8.75;6.20;;;;;;;15.52;100.00;101363.91;6264070;28;20339;-74
2021/09/11 03:20:11;;;;;;;6.68;6.07;;;;;;;15.42;100.00;101362.78;6264099;28;20191;-74
2021/09/11 03:23:15;;;;;;;5.72;5.32;;;;;;;15.46;100.00;101358.50;6262906;28;20473;-74
2021/09/11 03:26:20;;;;;;;6.60;5.90;;;;;;;15.48;100.00;101356.38;6263242;28;20264;-75
2021/09/11 03:29:26;;;;;;;5.95;5.45;;;;;;;15.43;100.00;101364.47;6263064;28;20192;-75
2021/09/11 03:32:30;;;;;;;5.68;5.28;;;;;;;15.39;100.00;101360.50;6263930;28;20255;-74
2021/09/11 03:35:34;;;;;;;5.72;5.30;;;;;;;15.42;100.00;101358.13;6263927;28;20189;-75
2021/09/11 03:38:39;;;;;;;9.88;4.97;;;;;;;15.38;100.00;101345.09;6243865;28;20232;-75
2021/09/11 03:41:43;;;;;;;6.63;5.15;;;;;;;15.50;100.00;101345.97;6263835;28;20220;-74
2021/09/11 03:44:50;;;;;;;5.97;5.32;;;;;;;15.48;100.00;101342.63;6263564;28;20193;-74
2021/09/11 03:47:54;;;;;;;7.00;6.30;;;;;;;15.56;100.00;101342.28;6262830;28;20192;-74
2021/09/11 03:50:58;;;;;;;9.35;6.50;;;;;;;15.33;100.00;101344.97;6262492;28;20254;-74
2021/09/11 03:54:02;;;;;;;10.20;6.85;;;;;;;15.26;100.00;101341.47;6263248;28;20189;-75
2021/09/11 03:57:07;;;;;;;8.45;6.88;;;;;;;15.35;100.00;101337.31;6263539;28;20185;-74
2021/09/11 04:00:15;;;;;;;7.70;6.10;;;;;;;15.37;100.00;101333.25;6263474;28;20185;-74
2021/09/11 04:03:19;;;;;;;7.35;6.18;;;;;;;15.35;100.00;101340.91;6263190;28;20241;-75
2021/09/11 04:06:27;;;;;;;6.22;5.63;;;;;;;15.30;100.00;101346.28;6262631;28;20208;-75
2021/09/11 04:09:31;;;;;;;6.50;5.53;;;;;;;15.36;100.00;101330.72;6263310;28;20279;-74
2021/09/11 04:12:36;;;;;;;6.20;5.40;;;;;;;15.23;100.00;101333.72;6262182;28;20244;-74
2021/09/11 04:15:42;;;;;;;6.93;5.97;;;;;;;15.19;100.00;101335.25;6262560;28;20192;-74
2021/09/11 04:18:46;;;;;;;6.47;5.90;;;;;;;15.24;100.00;101343.63;6262201;28;20216;-74
2021/09/11 04:21:50;;;;;;;9.18;6.50;;;;;;;15.22;100.00;101349.38;6262970;28;20196;-74
2021/09/11 04:24:54;;;;;;;10.30;6.10;;;;;;;15.10;100.00;101347.66;6263039;28;20185;-74
2021/09/11 04:27:58;;;;;;;7.05;6.13;;;;;;;14.97;100.00;101335.75;6262674;28;20263;-74
2021/09/11 04:31:04;;;;;;;7.72;6.57;;;;;;;15.01;100.00;101339.75;6261906;28;20191;-74
2021/09/11 04:34:11;;;;;;;8.93;6.35;;;;;;;15.13;100.00;101341.66;6261498;28;20192;-74
2021/09/11 04:37:15;;;;;;;8.07;6.30;;;;;;;15.27;100.00;101344.00;6262002;28;20191;-74
2021/09/11 04:40:20;;;;;;;7.35;6.35;;;;;;;15.14;100.00;101343.34;6262264;28;20252;-74
2021/09/11 04:43:26;;;;;;;7.72;6.30;;;;;;;15.15;100.00;101334.84;6261404;28;20195;-75
2021/09/11 04:46:32;;;;;;;8.65;6.32;;;;;;;15.13;100.00;101333.41;6262590;28;20189;-75
2021/09/11 04:49:36;;;;;;;6.18;5.55;;;;;;;14.91;100.00;101344.97;6262272;28;20185;-74
2021/09/11 04:52:41;;;;;;;7.65;6.85;;;;;;;15.11;100.00;101338.31;6262052;28;20209;-74
2021/09/11 04:55:45;;;;;;;7.22;6.40;;;;;;;15.17;100.00;101340.13;6261309;28;20185;-74
2021/09/11 04:58:52;;;;;;;7.47;6.50;;;;;;;15.20;100.00;101342.44;6261578;28;20189;-74
2021/09/11 05:01:58;;;;;;;8.40;6.63;;;;;;;15.05;100.00;101340.94;6254884;28;20189;-76
2021/09/11 05:05:07;;;;;;;8.25;6.45;;;;;;;15.17;100.00;101342.88;6261175;28;20243;-74
2021/09/11 05:08:12;;;;;;;6.70;5.88;;;;;;;15.16;100.00;101346.69;6261045;28;20255;-75
2021/09/11 05:11:16;;;;;;;7.88;6.25;;;;;;;15.23;100.00;101339.22;6262347;28;20189;-74
2021/09/11 05:14:20;;;;;;;7.50;6.57;;;;;;;15.26;100.00;101335.97;6260951;28;20476;-73
2021/09/11 05:17:26;;;;;;;7.40;6.38;;;;;;;15.26;100.00;101335.97;6261772;28;20264;-74
2021/09/11 05:20:30;;;;;;;6.43;5.82;;;;;;;15.31;100.00;101328.69;6262407;28;20228;-74
2021/09/11 05:23:37;;;;;;;6.90;6.20;;;;;;;15.38;100.00;101340.41;6262237;28;20195;-75
2021/09/11 05:26:42;;;;;;;8.23;6.68;;;;;;;15.42;100.00;101340.78;6261243;28;20192;-74
2021/09/11 05:29:47;;;;;;;7.28;6.57;;;;;;;15.38;100.00;101348.66;6260821;28;20561;-75
2021/09/11 05:32:52;;;;;;;7.13;6.47;;;;;;;15.46;100.00;101342.84;6253662;28;20280;-74
2021/09/11 05:35:57;;;;;;;6.68;6.00;;;;;;;15.33;100.00;101350.47;6262669;28;20223;-74
2021/09/11 05:39:01;;;;;;;6.90;6.30;;;;;;;15.32;100.00;101368.03;6262100;28;20216;-74
2021/09/11 05:42:07;;;;;;;7.05;6.45;;;;;;;15.41;100.00;101361.09;6262020;28;20191;-74
2021/09/11 05:45:15;;;;;;;6.53;6.10;;;;;;;15.27;100.00;101362.41;6260604;28;20523;-74
2021/09/11 05:48:20;;;;;;;7.55;6.45;;;;;;;15.26;100.00;101357.97;6260701;28;20484;-75
2021/09/11 05:51:24;;;;;;;6.38;5.78;;;;;;;15.30;100.00;101354.53;6262180;28;20221;-74
2021/09/11 05:54:29;;;;;;;7.07;6.32;;;;;;;15.37;100.00;101359.91;6265060;28;20523;-74
2021/09/11 05:57:33;;;;;;;6.95;6.25;;;;;;;15.50;100.00;101348.72;6266302;28;20216;-74
2021/09/11 06:00:37;;;;;;;7.32;6.57;;;;;;;15.40;100.00;101348.44;6265815;28;20252;-74
2021/09/11 06:03:43;;;;;;;9.00;6.57;;;;;;;15.46;100.00;101355.75;6265031;28;20523;-74
2021/09/11 06:06:47;;;;;;;7.30;6.57;;;;;;;15.43;100.00;101347.97;6265117;28;20192;-74
2021/09/11 06:09:52;;;;;;;7.63;6.72;;;;;;;15.48;99.79;101356.38;6257550;28;20252;-74
2021/09/11 06:12:56;;;;;;;7.55;6.63;;;;;;;15.28;100.00;101355.84;6265790;28;20212;-75
2021/09/11 06:16:02;;;;;;;6.57;5.97;;;;;;;15.17;100.00;101359.38;6265385;28;20269;-74
2021/09/11 06:19:11;;;;;;;7.22;6.45;;;;;;;15.30;100.00;101348.19;6265199;28;20192;-74
2021/09/11 06:22:15;;;;;;;6.85;6.15;;;;;;;15.33;100.00;101355.97;6265288;28;20185;-74
2021/09/11 06:25:20;;;;;;;8.65;6.78;;;;;;;15.47;100.00;101338.19;6264610;28;20231;-75
2021/09/11 06:28:25;;;;;;;8.32;6.53;;;;;;;15.53;100.00;101359.25;6265489;28;20185;-74
2021/09/11 06:31:30;;;;;;;8.25;6.55;;;;;;;15.51;100.00;101355.91;6265257;28;20192;-74
2021/09/11 06:34:35;;;;;;;9.18;6.10;;;;;;;15.50;100.00;101354.22;6264857;28;20283;-74
2021/09/11 06:37:40;;;;;;;6.82;6.05;;;;;;;15.55;100.00;101354.34;6263853;28;20464;-74
2021/09/11 06:40:44;;;;;;;8.15;6.10;;;;;;;15.58;100.00;101351.97;6265242;28;20208;-74
2021/09/11 06:43:48;;;;;;;7.18;6.45;;;;;;;15.65;99.05;101365.59;6263727;28;20258;-74
2021/09/11 06:46:52;;;;;;;8.68;6.75;;;;;;;15.54;100.00;101361.75;6265079;28;20192;-74
2021/09/11 06:49:58;;;;;;;7.43;6.70;;;;;;;15.71;99.45;101345.41;6263670;28;20474;-74
2021/09/11 06:53:02;;;;;;;11.05;6.55;;;;;;;15.65;99.56;101352.69;6264758;28;20219;-74
2021/09/11 06:56:07;;;;;;;10.30;6.28;;;;;;;15.65;99.94;101351.84;6264502;28;20185;-74
2021/09/11 06:59:12;;;;;;;12.20;7.15;;;;;;;15.75;99.71;101352.09;6264742;28;20299;-74
2021/09/11 07:02:18;;;;;;;10.30;7.00;;;;;;;15.79;99.42;101353.31;6264200;28;20201;-74
2021/09/11 07:05:24;;;;;;;6.10;5.65;;;;;;;15.77;99.17;101355.44;6263509;28;20229;-74
2021/09/11 07:08:28;;;;;;;6.47;5.88;;;;;;;15.73;99.69;101354.25;6264664;28;20251;-74
2021/09/11 07:11:32;;;;;;;7.50;6.80;;;;;;;15.80;99.49;101352.22;6264047;28;20185;-74
2021/09/11 07:14:37;;;;;;;7.32;6.40;;;;;;;15.69;100.00;101347.53;6263397;28;20219;-74
2021/09/11 07:17:41;;;;;;;8.07;7.28;;;;;;;15.80;100.00;101349.47;6263353;28;20367;-74
2021/09/11 07:20:47;;;;;;;10.57;7.28;;;;;;;15.86;99.21;101364.19;6262945;28;20399;-74
2021/09/11 07:23:51;;;;;;;7.18;6.55;;;;;;;15.99;97.83;101364.78;6264178;28;20189;-74
2021/09/11 07:26:55;;;;;;;7.80;6.95;;;;;;;15.96;97.95;101365.25;6263927;28;20249;-74
2021/09/11 07:29:59;;;;;;;7.43;6.50;;;;;;;15.92;99.02;101361.28;6263932;28;20220;-74
2021/09/11 07:33:04;;;;;;;8.20;7.35;;;;;;;15.93;97.88;101365.75;6263780;28;20185;-74
2021/09/11 07:36:12;;;;;;;7.05;6.45;;;;;;;16.00;98.65;101371.94;6262515;28;20205;-74
2021/09/11 07:39:16;;;;;;;7.60;6.43;;;;;;;15.98;98.61;101368.59;6263320;28;20192;-74
2021/09/11 07:42:20;;;;;;;7.78;6.72;;;;;;;16.03;97.90;101365.97;6263414;28;20184;-74
2021/09/11 07:45:25;;;;;;;7.60;6.75;;;;;;;16.11;96.75;101360.09;6262339;28;20493;-74
2021/09/11 07:48:29;;;;;;;7.05;6.45;;;;;;;15.98;97.28;101368.59;6263033;28;20185;-74
2021/09/11 07:51:38;;;;;;;7.35;6.65;;;;;;;16.01;97.57;101368.13;6262161;28;20522;-74
2021/09/11 07:54:45;;;;;;;6.72;6.22;;;;;;;16.07;96.25;101372.69;6263433;28;20216;-74
2021/09/11 07:57:51;;;;;;;6.93;6.43;;;;;;;16.11;95.80;101384.03;6263261;28;20223;-74
2021/09/11 08:00:55;;;;;;;7.93;7.13;;;;;;;16.09;96.05;101387.03;6256121;28;20189;-74
2021/09/11 08:04:00;;;;;;;7.20;6.22;;;;;;;16.10;96.15;101380.44;6262177;28;20251;-74
2021/09/11 08:07:06;;;;;;;7.85;7.07;;;;;;;16.11;96.54;101379.38;6262941;28;20223;-74
2021/09/11 08:10:11;;;;;;;7.55;6.47;;;;;;;16.12;97.09;101375.56;6262700;28;20216;-74
2021/09/11 08:13:16;;;;;;;7.18;6.20;;;;;;;16.32;96.25;101363.31;6262349;28;20263;-74
2021/09/11 08:16:20;;;;;;;9.52;6.57;;;;;;;16.32;94.10;101374.31;6260913;28;20442;-75
2021/09/11 08:19:24;;;;;;;5.50;5.15;;;;;;;16.23;95.86;101360.91;6262427;28;20216;-74
2021/09/11 08:22:30;;;;;;;7.18;6.68;;;;;;;16.36;94.92;101370.03;6262682;28;20216;-74
2021/09/11 08:25:34;;;;;;;7.43;6.75;;;;;;;16.31;95.71;101367.97;6262875;28;20189;-74
2021/09/11 08:28:39;;;;;;;7.10;6.50;;;;;;;16.44;95.00;101372.38;6261816;28;20482;-74
2021/09/11 08:31:43;;;;;;;6.97;6.20;;;;;;;16.47;95.51;101366.38;6262315;28;20295;-74
2021/09/11 08:34:47;;;;;;;6.93;6.43;;;;;;;16.53;95.30;101376.47;6261405;28;20218;-74
2021/09/11 08:37:54;;;;;;;6.63;6.05;;;;;;;16.60;93.44;101377.16;6253693;28;20189;-74
2021/09/11 08:41:02;;;;;;;6.55;6.03;;;;;;;16.58;93.15;101373.81;6262701;28;20192;-75
2021/09/11 08:44:10;;;;;;;9.15;6.50;;;;;;;16.46;93.88;101370.25;6262189;28;20189;-75
2021/09/11 08:47:15;;;;;;;7.07;6.57;;;;;;;16.60;93.51;101374.41;6262160;28;20252;-74
2021/09/11 08:50:19;;;;;;;7.75;6.93;;;;;;;16.62;94.39;101369.50;6262517;28;20252;-75
2021/09/11 08:53:28;;;;;;;11.00;7.07;;;;;;;16.72;93.61;101369.69;6262434;28;20223;-74
2021/09/11 08:56:38;;;;;;;6.68;5.63;;;;;;;16.79;92.46;101364.91;6262440;28;20212;-74
2021/09/11 08:59:42;;;;;;;8.05;6.85;;;;;;;16.73;92.85;101376.91;6261788;28;20185;-74
2021/09/11 09:02:47;;;;;;;7.10;6.60;;;;;;;16.50;93.10;101360.41;6262238;28;20204;-74
2021/09/11 09:05:52;;;;;;;6.70;6.22;;;;;;;16.58;93.45;101368.31;6254221;28;20196;-75
2021/09/11 09:09:06;;;;;;;8.13;7.43;;;;;;;16.53;94.50;101365.47;6261086;28;20476;-74
2021/09/11 09:12:14;;;;;;;7.78;7.07;;;;;;;16.82;93.76;101375.41;6262146;28;20252;-74
2021/09/11 09:15:20;;;;;;;7.68;7.10;;;;;;;16.70;94.37;101360.84;6261992;28;20212;-75
2021/09/11 09:18:33;;;;;;;8.25;7.55;;;;;;;16.60;93.53;101372.50;6262258;28;20185;-74
2021/09/11 09:21:37;;;;;;;10.02;6.88;;;;;;;16.71;93.30;101370.81;6262114;28;20303;-74
2021/09/11 09:24:43;;;;;;;11.20;7.43;;;;;;;16.94;93.25;101367.97;6260920;28;20436;-74
2021/09/11 09:27:52;;;;;;;7.43;6.82;;;;;;;16.98;92.15;101368.28;6266888;28;20185;-76
2021/09/11 09:30:57;;;;;;;9.90;7.30;;;;;;;17.10;90.47;101356.13;6259429;28;20220;-74
2021/09/11 09:34:01;;;;;;;8.50;7.63;;;;;;;17.17;90.41;101362.34;6266507;28;20189;-74
2021/09/11 09:37:07;;;;;;;9.55;8.38;;;;;;;17.25;89.20;101363.84;6265740;28;20221;-74
2021/09/11 09:40:13;;;;;;;13.90;8.20;;;;;;;17.16;89.09;101355.13;6266662;28;20227;-75
2021/09/11 09:43:30;;;;;;;11.27;8.15;;;;;;;17.19;89.02;101343.63;6266868;28;20184;-74
2021/09/11 09:46:39;;;;;;;8.73;7.53;;;;;;;17.17;90.08;101351.31;6266191;28;20225;-74
2021/09/11 09:50:04;;;;;;;8.50;7.70;;;;;;;17.14;90.48;101346.28;6265077;28;20526;-76
2021/09/11 09:53:11;;;;;;;7.20;6.60;;;;;;;17.13;91.09;101347.34;6265124;28;20525;-76
2021/09/11 09:56:18;;;;;;;8.18;7.32;;;;;;;17.24;90.92;101351.97;6264861;28;20535;-75
2021/09/11 09:59:22;;;;;;;7.32;6.68;;;;;;;17.34;91.16;101346.63;6265124;28;20263;-74
2021/09/11 10:02:26;;;;;;;7.50;6.65;;;;;;;17.49;89.95;101343.28;6265953;28;20269;-73
2021/09/11 10:05:31;;;;;;;7.57;6.55;;;;;;;17.56;89.16;101343.19;6265046;28;20247;-74
2021/09/11 10:08:45;;;;;;;7.28;6.53;;;;;;;17.71;88.67;101335.16;6265490;28;20189;-76
2021/09/11 10:11:51;;;;;;;7.55;6.88;;;;;;;17.81;88.17;101335.31;6265576;28;20185;-75
2021/09/11 10:15:25;;;;;;;7.90;7.30;;;;;;;17.82;87.66;101328.72;6265327;28;20216;-75
2021/09/11 10:18:44;;;;;;;7.28;6.57;;;;;;;17.82;88.67;101325.94;6264859;28;20185;-74
2021/09/11 10:21:49;;;;;;;7.10;6.57;;;;;;;17.99;87.96;101332.25;6265667;28;20248;-74
2021/09/11 10:25:02;;;;;;;7.28;6.50;;;;;;;18.06;87.57;101321.88;6256611;28;20548;-74
2021/09/11 10:28:14;;;;;;;7.10;6.50;;;;;;;18.11;88.16;101330.22;6265180;28;20189;-74
2021/09/11 10:31:19;;;;;;;6.88;6.38;;;;;;;18.15;87.88;101312.88;6265427;28;20192;-74
2021/09/11 10:34:44;;;;;;;6.55;6.00;;;;;;;18.20;86.67;101311.28;6264240;28;20208;-74
2021/09/11 10:37:49;;;;;;;6.95;6.50;;;;;;;18.30;87.28;101306.75;6263406;28;20255;-74
2021/09/11 10:41:08;;;;;;;6.93;6.40;;;;;;;18.40;85.35;101290.28;6264935;28;20192;-73
2021/09/11 10:44:13;;;;;;;8.27;7.43;;;;;;;18.57;84.27;101295.75;6263859;28;20495;-74
2021/09/11 10:47:43;;;;;;;7.40;6.80;;;;;;;18.58;85.25;101292.75;6264530;28;20189;-74
2021/09/11 10:50:49;;;;;;;7.78;7.28;;;;;;;18.59;85.28;101288.88;6263419;28;20480;-74
2021/09/11 10:54:10;;;;;;;8.15;7.35;;;;;;;18.64;85.10;101288.94;6263932;28;20184;-74
2021/09/11 10:57:17;;;;;;;7.93;7.22;;;;;;;18.72;84.94;101288.47;6263459;28;20266;-74
2021/09/11 11:00:23;;;;;;;8.02;7.25;;;;;;;18.87;83.72;101300.81;6264620;28;20194;-74
2021/09/11 11:03:28;;;;;;;7.30;6.80;;;;;;;18.96;82.42;101288.16;6263584;28;20394;-74
2021/09/11 11:06:33;;;;;;;7.53;7.03;;;;;;;19.02;82.69;101292.66;6263379;28;20193;-74
2021/09/11 11:09:38;;;;;;;8.15;7.25;;;;;;;19.08;82.65;101295.19;6264248;28;20185;-76
2021/09/11 11:12:45;;;;;;;7.40;6.80;;;;;;;19.15;81.95;101292.25;6264243;28;20192;-74
2021/09/11 11:15:57;;;;;;;7.72;7.20;;;;;;;19.14;82.95;101301.63;6255985;28;20208;-74
2021/09/11 11:19:01;;;;;;;7.55;6.75;;;;;;;19.19;82.81;101293.38;6262918;28;20391;-74
2021/09/11 11:22:07;;;;;;;7.85;7.10;;;;;;;19.23;82.62;101294.53;6263135;28;20188;-74
2021/09/11 11:25:14;;;;;;;10.10;7.38;;;;;;;19.33;81.67;101300.16;6263624;28;20220;-74
2021/09/11 11:28:18;;;;;;;8.02;7.53;;;;;;;19.44;81.10;101290.84;6263652;28;20185;-74
2021/09/11 11:31:24;;;;;;;8.60;7.80;;;;;;;19.46;80.85;101294.22;6263883;28;20251;-74
2021/09/11 11:34:29;;;;;;;7.65;7.10;;;;;;;19.47;80.48;101286.72;6263877;28;20256;-74
2021/09/11 11:37:35;;;;;;;7.28;6.78;;;;;;;19.46;79.18;101288.69;6262664;28;20320;-74
2021/09/11 11:40:39;;;;;;;8.25;7.45;;;;;;;19.45;79.07;101287.00;6263523;28;20192;-74
2021/09/11 11:43:45;;;;;;;11.93;7.72;;;;;;;19.51;79.21;101280.41;6262731;28;20224;-74
2021/09/11 11:46:54;;;;;;;9.32;8.20;;;;;;;19.53;77.14;101278.19;6262156;28;20364;-74
2021/09/11 11:49:59;;;;;;;8.40;7.55;;;;;;;19.56;77.55;101277.69;6263248;28;20185;-75
2021/09/11 11:53:06;;;;;;;8.68;7.88;;;;;;;19.60;76.37;101278.81;6263170;28;20193;-76
2021/09/11 11:56:11;;;;;;;10.85;8.07;;;;;;;19.59;77.31;101277.16;6262988;28;20209;-75
2021/09/11 11:59:22;;;;;;;12.48;7.80;;;;;;;19.70;76.53;101272.50;6262095;28;20376;-76
2021/09/11 12:02:30;;;;;;;8.23;7.53;;;;;;;19.70;75.62;101259.50;6263331;28;20208;-75
2021/09/11 12:05:42;;;;;;;8.18;7.38;;;;;;;19.80;75.06;101267.03;6262930;28;20264;-75
2021/09/11 12:08:48;;;;;;;8.70;7.95;;;;;;;19.85;74.68;101278.97;6262997;28;20184;-77
2021/09/11 12:12:03;;;;;;;7.70;7.22;;;;;;;19.90;74.38;101273.44;6261872;28;20468;-75
2021/09/11 12:15:10;;;;;;;8.60;8.00;;;;;;;19.86;75.38;101277.03;6261780;28;20371;-76
2021/09/11 12:18:17;;;;;;;8.75;7.90;;;;;;;19.95;76.43;101270.72;6263123;28;20213;-75
2021/09/11 12:21:23;;;;;;;8.38;7.68;;;;;;;20.02;75.72;101269.66;6262377;28;20185;-76
2021/09/11 12:24:28;;;;;;;13.13;7.72;;;;;;;20.11;75.39;101273.59;6263046;28;20185;-75
2021/09/11 12:27:32;;;;;;;8.30;7.75;;;;;;;20.13;74.29;101277.75;6261748;28;20211;-76
2021/09/11 12:30:51;;;;;;;8.00;7.20;;;;;;;20.19;74.25;101261.97;6261728;28;20352;-76
2021/09/11 12:34:00;;;;;;;8.00;7.43;;;;;;;20.24;73.99;101262.03;6261691;28;20185;-75
2021/09/11 12:37:04;;;;;;;7.53;6.93;;;;;;;20.21;73.42;101259.78;6262845;28;20240;-76
2021/09/11 12:40:11;;;;;;;7.90;7.20;;;;;;;20.16;73.47;101255.03;6262998;28;20276;-76
2021/09/11 12:43:16;;;;;;;7.75;7.25;;;;;;;20.23;72.83;101260.34;6262594;28;20207;-76
2021/09/11 12:46:30;;;;;;;8.63;7.80;;;;;;;20.26;73.07;101255.09;6262742;28;20279;-75
2021/09/11 12:49:38;;;;;;;7.75;7.03;;;;;;;20.22;73.65;101258.66;6261468;28;20554;-75
2021/09/11 12:52:43;;;;;;;8.82;8.18;;;;;;;20.27;74.04;101250.41;6262390;28;20185;-75
2021/09/11 12:55:47;;;;;;;7.97;7.47;;;;;;;20.17;74.28;101261.41;6261469;28;20192;-76
2021/09/11 12:58:52;;;;;;;7.72;7.22;;;;;;;20.15;75.10;101258.09;6262366;28;20284;-75
2021/09/11 13:01:57;;;;;;;8.85;7.95;;;;;;;20.09;75.73;101257.22;6265903;28;20188;-75
2021/09/11 13:05:03;;;;;;;10.07;7.63;;;;;;;20.11;75.20;101254.19;6266326;28;20464;-75
2021/09/11 13:08:08;;;;;;;9.18;7.90;;;;;;;20.04;75.56;101259.13;6266893;28;20189;-75
2021/09/11 13:11:17;;;;;;;8.85;8.02;;;;;;;20.06;75.14;101265.22;6266763;28;20185;-75
2021/09/11 13:14:21;;;;;;;9.15;8.35;;;;;;;20.06;75.38;101254.16;6266800;28;20184;-75
2021/09/11 13:17:25;;;;;;;12.55;9.18;;;;;;;20.00;75.16;101250.53;6265774;28;20212;-75
2021/09/11 13:20:31;;;;;;;16.50;8.57;;;;;;;20.02;75.23;101253.03;6266852;28;20254;-75
2021/09/11 13:23:36;;;;;;;11.77;8.48;;;;;;;20.04;74.93;101256.34;6266894;28;20192;-75
2021/09/11 13:26:44;;;;;;;32.70;23.70;;;;;;;19.95;75.99;101254.09;6267088;28;20192;-75
2021/09/11 13:29:48;;;;;;;11.38;10.35;;;;;;;19.79;77.07;101252.38;6266594;28;20251;-75
2021/09/11 13:32:52;;;;;;;9.98;8.52;;;;;;;19.87;76.31;101251.03;6257712;28;20207;-75
2021/09/11 13:35:59;;;;;;;11.02;8.40;;;;;;;19.71;76.17;101247.31;6265930;28;20254;-75
2021/09/11 13:39:03;;;;;;;9.20;8.30;;;;;;;19.72;75.91;101237.91;6266537;28;20212;-75
2021/09/11 13:42:09;;;;;;;12.77;8.90;;;;;;;19.73;75.88;101247.03;6266365;28;20192;-75
2021/09/11 13:45:13;;;;;;;8.77;8.07;;;;;;;19.80;74.92;101240.16;6266608;28;20185;-76
2021/09/11 13:48:18;;;;;;;10.10;8.10;;;;;;;19.75;75.34;101239.31;6266139;28;20212;-75
2021/09/11 13:51:26;;;;;;;9.65;8.65;;;;;;;19.75;74.96;101240.13;6266315;28;20264;-75
2021/09/11 13:54:30;;;;;;;8.63;7.85;;;;;;;19.68;74.67;101234.03;6265026;28;20185;-75
2021/09/11 13:57:34;;;;;;;8.63;7.63;;;;;;;19.70;74.85;101233.72;6266023;28;20258;-74
2021/09/11 14:00:40;;;;;;;9.35;7.95;;;;;;;19.58;76.37;101233.97;6265631;28;20195;-75
2021/09/11 14:03:45;;;;;;;8.30;7.70;;;;;;;19.64;75.07;101229.28;6265595;28;20228;-74
2021/09/11 14:06:58;;;;;;;9.45;8.10;;;;;;;19.53;76.20;101228.38;6264270;28;20361;-75
2021/09/11 14:10:02;;;;;;;9.30;7.95;;;;;;;19.53;74.96;101227.53;6265478;28;20217;-75
2021/09/11 14:13:07;;;;;;;12.40;8.27;;;;;;;19.57;75.20;101215.66;6263002;28;20191;-74
2021/09/11 14:16:14;;;;;;;8.85;7.93;;;;;;;19.57;75.30;101218.44;6265794;28;20185;-74
2021/09/11 14:19:19;;;;;;;8.93;7.47;;;;;;;19.43;75.49;101221.94;6265478;28;20219;-74